Time;durP1;ratioP1;P1;durP2;ratioP2;P2;SDS_P1;SDS_P2;PMS_P1;PMS_P2;Temp;Humidity;BMP_temperature;BMP_pressure;BME280_temperature;BME280_humidity;BME280_pressure;Samples;Min_cycle;Max_cycle;Signal;HPM_P1;HPM_P2
2023/04/23 00:00:01;;;;;;;10.77;8.98;;;;;;;16.66;61.25;100902.50;5003317;28;20243;-81
2023/04/23 00:02:32;;;;;;;11.85;10.20;;;;;;;16.57;61.19;100878.53;5009184;28;20256;-82
2023/04/23 00:05:05;;;;;;;13.70;10.25;;;;;;;16.61;60.48;100850.41;5006213;28;20046;-81
2023/04/23 00:07:33;;;;;;;14.00;9.35;;;;;;;16.67;60.39;100876.50;4991086;28;20183;-83
2023/04/23 00:10:02;;;;;;;14.05;9.93;;;;;;;16.42;60.55;100857.78;4994257;28;20140;-83
2023/04/23 00:12:30;;;;;;;15.88;10.75;;;;;;;16.54;60.64;100863.63;4993348;28;20475;-82
2023/04/23 00:14:57;;;;;;;15.77;9.85;;;;;;;15.91;61.04;100776.78;4989692;28;20644;-81
2023/04/23 00:17:27;;;;;;;11.25;9.68;;;;;;;16.60;60.91;100886.25;5007982;28;20049;-81
2023/04/23 00:19:54;;;;;;;13.93;10.50;;;;;;;16.57;61.01;100889.25;4987616;28;20607;-80
2023/04/23 00:22:23;;;;;;;17.40;11.90;;;;;;;16.28;61.30;100865.66;4985580;28;20045;-82
2023/04/23 00:24:50;;;;;;;13.40;11.73;;;;;;;16.37;61.54;100870.03;5005546;28;20136;-81
2023/04/23 00:27:17;;;;;;;15.40;11.88;;;;;;;16.51;61.17;100903.34;5010899;28;20393;-80
2023/04/23 00:30:02;;;;;;;16.15;12.40;;;;;;;16.39;61.72;100884.09;5005299;28;20049;-82
2023/04/23 00:32:31;;;;;;;13.18;11.45;;;;;;;16.45;61.77;100894.94;4986489;28;20235;-80
2023/04/23 00:34:57;;;;;;;13.98;11.20;;;;;;;16.43;61.91;100891.63;4994069;28;20136;-81
2023/04/23 00:37:24;;;;;;;17.67;12.88;;;;;;;15.72;61.78;100775.25;5008069;28;20049;-81
2023/04/23 00:39:54;;;;;;;19.98;12.25;;;;;;;16.27;61.91;100859.47;4990587;28;20045;-81
2023/04/23 00:42:24;;;;;;;18.02;12.30;;;;;;;16.15;61.48;100850.09;5000702;28;20249;-81
2023/04/23 00:44:54;;;;;;;16.65;13.02;;;;;;;16.55;61.66;100893.94;5016489;28;20411;-80
2023/04/23 00:47:22;;;;;;;20.33;13.00;;;;;;;16.47;61.35;100896.66;5015107;28;20041;-80
2023/04/23 00:50:02;;;;;;;21.17;13.50;;;;;;;16.42;61.50;100889.94;4992582;28;20061;-82
2023/04/23 00:52:29;;;;;;;14.32;12.63;;;;;;;16.28;62.09;100887.91;4991253;28;20049;-81
2023/04/23 00:57:45;;;;;;;17.23;13.13;;;;;;;16.22;61.73;100873.34;5001298;28;20388;-82
2023/04/23 01:00:12;;;;;;;17.23;13.70;;;;;;;16.67;61.08;100887.25;4985335;28;20466;-81
2023/04/23 01:02:49;;;;;;;17.80;13.27;;;;;;;16.38;61.91;100887.75;4982036;28;20544;-82
2023/04/23 01:05:19;;;;;;;18.73;13.40;;;;;;;16.22;62.04;100869.84;5001575;28;20225;-79
2023/04/23 01:08:03;;;;;;;15.95;13.55;;;;;;;16.29;62.26;100888.75;5001531;28;20053;-79
2023/04/23 01:10:31;;;;;;;24.75;13.52;;;;;;;15.90;62.77;100855.44;4999473;28;20293;-80
2023/04/23 01:12:58;;;;;;;19.02;13.85;;;;;;;15.99;62.97;100873.16;4982893;28;20073;-79
2023/04/23 01:15:25;;;;;;;14.60;13.07;;;;;;;15.82;63.08;100855.41;4985227;28;20429;-81
2023/04/23 01:18:03;;;;;;;15.65;13.30;;;;;;;16.00;63.16;100890.91;4984894;28;20046;-80
2023/04/23 01:20:42;;;;;;;18.63;13.00;;;;;;;15.76;63.34;100842.69;4990492;28;20050;-80
2023/04/23 01:23:09;;;;;;;15.93;13.15;;;;;;;15.90;63.48;100890.22;4993954;28;20103;-80
2023/04/23 01:25:39;;;;;;;15.48;12.82;;;;;;;15.92;63.42;100893.59;4992264;28;20100;-79
2023/04/23 01:28:06;;;;;;;14.73;13.13;;;;;;;15.69;63.67;100860.38;4987331;28;20057;-80
2023/04/23 01:30:39;;;;;;;15.85;13.52;;;;;;;15.14;63.64;100776.91;4987479;28;20057;-79
2023/04/23 01:33:07;;;;;;;15.18;13.13;;;;;;;15.87;63.58;100887.84;4991602;28;20054;-80
2023/04/23 01:35:42;;;;;;;15.55;12.40;;;;;;;15.73;63.68;100877.81;4990141;28;20050;-80
2023/04/23 01:38:13;;;;;;;12.68;11.30;;;;;;;15.06;63.63;100762.69;4990696;28;20053;-79
2023/04/23 01:40:43;;;;;;;17.02;11.75;;;;;;;15.65;63.66;100864.38;5001262;28;20108;-80
2023/04/23 01:43:09;;;;;;;14.82;11.55;;;;;;;15.07;63.62;100775.06;4999759;28;20058;-79
2023/04/23 01:45:45;;;;;;;16.75;12.40;;;;;;;15.52;63.73;100857.63;4989036;28;20108;-80
2023/04/23 01:48:16;;;;;;;15.07;12.55;;;;;;;15.65;63.76;100881.25;4997715;28;20750;-79
2023/04/23 01:50:43;;;;;;;17.17;12.38;;;;;;;15.66;63.57;100890.13;4998034;28;20104;-78
2023/04/23 01:53:13;;;;;;;13.95;12.25;;;;;;;15.71;63.36;100898.53;4990791;28;20049;-80
2023/04/23 01:55:45;;;;;;;16.83;12.48;;;;;;;15.70;63.69;100903.03;4985872;28;20054;-80
2023/04/23 01:58:14;;;;;;;15.50;12.32;;;;;;;15.38;63.74;100847.56;4983141;28;20046;-80
2023/04/23 02:00:41;;;;;;;12.93;11.27;;;;;;;15.45;63.45;100858.44;5004795;28;20054;-79
2023/04/23 02:03:11;;;;;;;16.80;12.65;;;;;;;15.49;63.82;100873.19;5016122;28;20064;-80
2023/04/23 02:05:41;;;;;;;19.23;12.68;;;;;;;15.56;63.79;100888.44;5021420;28;20041;-81
2023/04/23 02:08:08;;;;;;;14.32;11.55;;;;;;;15.44;63.98;100875.47;5015396;28;20804;-80
2023/04/23 02:10:35;;;;;;;16.77;12.13;;;;;;;15.32;63.81;100856.25;5012787;28;20165;-78
2023/04/23 02:13:06;;;;;;;14.35;12.23;;;;;;;15.48;64.25;100887.56;4989772;28;20058;-80
2023/04/23 02:15:37;;;;;;;16.23;12.30;;;;;;;15.26;64.05;100854.19;4994050;28;20056;-80
2023/04/23 02:18:06;;;;;;;14.13;12.38;;;;;;;15.31;64.23;100878.63;4990850;28;20050;-79
2023/04/23 02:20:40;;;;;;;17.95;12.10;;;;;;;15.37;64.50;100889.53;4989757;28;20085;-79
2023/04/23 02:23:07;;;;;;;12.02;10.82;;;;;;;15.17;64.23;100848.81;4993233;28;20228;-79
2023/04/23 02:25:37;;;;;;;16.85;11.48;;;;;;;15.22;64.19;100863.53;4998666;28;20492;-80
2023/04/23 02:28:07;;;;;;;14.05;11.30;;;;;;;15.35;64.55;100896.88;4994562;28;20041;-80
2023/04/23 02:30:34;;;;;;;15.77;11.13;;;;;;;14.93;64.57;100835.34;5001160;28;20054;-80
2023/04/23 02:33:02;;;;;;;13.13;11.48;;;;;;;15.28;64.90;100889.66;4995135;28;20054;-80
2023/04/23 02:35:30;;;;;;;11.20;9.40;;;;;;;15.16;63.49;100846.28;4984265;28;20065;-79
2023/04/23 02:37:56;;;;;;;11.27;8.32;;;;;;;15.50;62.15;100888.22;4990785;28;20301;-79
2023/04/23 02:40:23;;;;;;;12.02;8.40;;;;;;;15.27;61.99;100862.06;4987109;28;20448;-79
2023/04/23 02:42:50;;;;;;;11.30;9.10;;;;;;;15.25;62.68;100858.72;4988978;28;20472;-80
2023/04/23 02:45:16;;;;;;;12.52;8.77;;;;;;;15.20;62.91;100857.53;4987511;28;20093;-80
2023/04/23 02:47:46;;;;;;;10.88;8.73;;;;;;;15.32;62.70;100883.81;4987159;28;20665;-79
2023/04/23 02:50:20;;;;;;;11.73;9.63;;;;;;;15.27;62.89;100880.78;4981444;28;20046;-80
2023/04/23 02:52:50;;;;;;;9.65;8.60;;;;;;;15.39;62.42;100881.34;4994765;28;20389;-79
2023/04/23 02:55:17;;;;;;;11.95;9.50;;;;;;;15.50;62.25;100877.53;4990639;28;20300;-80
2023/04/23 02:57:50;;;;;;;12.27;9.30;;;;;;;15.03;62.00;100801.28;4990630;28;20050;-79
2023/04/23 03:00:17;;;;;;;10.00;9.00;;;;;;;15.52;62.09;100880.88;4990970;28;20053;-79
2023/04/23 03:02:43;;;;;;;10.23;8.68;;;;;;;15.49;62.49;100881.22;4981606;28;20523;-80
2023/04/23 03:05:21;;;;;;;10.82;7.75;;;;;;;15.55;61.65;100867.19;5003575;28;20417;-80
2023/04/23 03:07:48;;;;;;;8.52;7.63;;;;;;;15.49;61.08;100866.00;4981144;28;20177;-80
2023/04/23 03:10:15;;;;;;;8.90;7.93;;;;;;;15.26;61.43;100832.78;5010480;28;20046;-80
2023/04/23 03:12:42;;;;;;;8.73;7.78;;;;;;;15.25;61.13;100817.75;5007521;28;20526;-80
2023/04/23 03:15:09;;;;;;;9.60;7.78;;;;;;;15.42;61.37;100854.25;4993647;28;20120;-80
2023/04/23 03:17:37;;;;;;;12.02;8.27;;;;;;;15.24;61.08;100813.41;4993267;28;20050;-80
2023/04/23 03:20:09;;;;;;;9.95;8.55;;;;;;;15.38;61.46;100847.56;4994313;28;20395;-80
2023/04/23 03:22:44;;;;;;;9.38;7.85;;;;;;;14.63;61.60;100735.94;5006211;28;20480;-80
2023/04/23 03:25:11;;;;;;;9.13;8.18;;;;;;;15.54;61.33;100877.03;5008531;28;20129;-80
2023/04/23 03:27:39;;;;;;;11.27;8.38;;;;;;;15.42;61.44;100864.13;5005900;28;20855;-79
2023/04/23 03:30:19;;;;;;;11.00;8.32;;;;;;;15.33;61.90;100863.25;4991976;28;20057;-78
2023/04/23 03:32:53;;;;;;;9.15;7.93;;;;;;;15.45;61.95;100869.16;4985881;28;20286;-80
2023/04/23 03:35:20;;;;;;;10.38;8.73;;;;;;;15.08;62.07;100816.84;4988843;28;20057;-79
2023/04/23 03:37:47;;;;;;;9.73;8.35;;;;;;;15.36;62.13;100871.81;5000161;28;20068;-78
2023/04/23 03:40:30;;;;;;;12.00;8.27;;;;;;;14.96;61.98;100805.59;4987548;28;20522;-80
2023/04/23 03:43:11;;;;;;;10.13;8.35;;;;;;;15.25;61.57;100858.72;4994223;28;20112;-80
2023/04/23 03:45:37;;;;;;;12.52;8.27;;;;;;;15.33;61.39;100865.94;4989374;28;20542;-80
2023/04/23 03:48:04;;;;;;;11.85;8.50;;;;;;;15.07;61.66;100829.41;4987320;28;20042;-80
2023/04/23 03:50:33;;;;;;;12.55;8.10;;;;;;;15.33;61.42;100876.63;4990516;28;20050;-80
2023/04/23 03:53:04;;;;;;;10.30;8.25;;;;;;;15.41;61.24;100879.31;4988404;28;20514;-80
2023/04/23 03:55:31;;;;;;;10.07;7.72;;;;;;;15.26;61.08;100840.81;4984411;28;20050;-80
2023/04/23 03:58:11;;;;;;;9.32;8.07;;;;;;;15.26;61.13;100859.53;4975390;28;20065;-81
2023/04/23 04:00:41;;;;;;;8.55;7.60;;;;;;;15.34;61.07;100868.44;4964060;28;20088;-80
2023/04/23 04:03:16;;;;;;;13.15;8.20;;;;;;;15.29;61.39;100870.78;4980607;28;20101;-79
2023/04/23 04:05:48;;;;;;;8.10;7.13;;;;;;;15.38;60.75;100879.66;4983514;28;20050;-79
2023/04/23 04:08:21;;;;;;;8.75;7.60;;;;;;;15.37;60.20;100884.16;4962877;28;20524;-80
2023/04/23 04:10:50;;;;;;;7.18;6.47;;;;;;;15.11;59.93;100852.13;4982792;28;20057;-80
2023/04/23 04:13:17;;;;;;;10.40;7.57;;;;;;;14.79;59.25;100804.69;4966398;28;20058;-80
2023/04/23 04:15:47;;;;;;;11.30;6.68;;;;;;;15.02;59.52;100842.38;4964841;28;20488;-78
2023/04/23 04:18:15;;;;;;;9.88;6.40;;;;;;;15.03;59.66;100862.78;4967930;28;20130;-79
2023/04/23 04:20:47;;;;;;;7.10;6.20;;;;;;;14.98;59.23;100840.19;4980678;28;20349;-80
2023/04/23 04:23:18;;;;;;;8.18;6.68;;;;;;;15.07;59.60;100855.28;5005546;28;20575;-79
2023/04/23 04:25:55;;;;;;;9.93;6.55;;;;;;;14.99;59.98;100836.53;4973638;28;20169;-80
2023/04/23 04:28:35;;;;;;;7.18;6.47;;;;;;;14.83;59.82;100797.16;4970623;28;20096;-80
2023/04/23 04:31:26;;;;;;;10.40;6.10;;;;;;;15.16;60.23;100871.19;4984829;28;20053;-80
2023/04/23 04:34:09;;;;;;;9.82;6.53;;;;;;;15.11;60.23;100868.16;4987329;28;20330;-81
2023/04/23 04:36:40;;;;;;;9.20;7.18;;;;;;;14.86;60.10;100836.97;4995142;28;20050;-81
2023/04/23 04:39:06;;;;;;;8.38;6.60;;;;;;;14.44;60.84;100789.56;4986694;28;20041;-80
2023/04/23 04:41:36;;;;;;;7.90;6.78;;;;;;;14.99;61.19;100885.47;4978927;28;20068;-80
2023/04/23 04:44:03;;;;;;;9.00;6.88;;;;;;;14.65;61.67;100834.66;4983546;28;20053;-79
2023/04/23 04:46:41;;;;;;;8.43;6.57;;;;;;;13.75;60.88;100706.66;4978179;28;20681;-79
2023/04/23 04:49:11;;;;;;;7.97;6.72;;;;;;;14.87;61.47;100892.91;4999380;28;20569;-79
2023/04/23 04:51:48;;;;;;;10.60;6.78;;;;;;;14.56;61.16;100833.75;4995055;28;20508;-81
2023/04/23 04:54:17;;;;;;;7.45;6.50;;;;;;;14.71;61.21;100856.25;4976074;28;20061;-80
2023/04/23 04:56:46;;;;;;;8.23;6.95;;;;;;;14.87;61.61;100898.25;4979765;28;20041;-79
2023/04/23 04:59:13;;;;;;;8.02;7.10;;;;;;;14.63;62.16;100864.19;5000199;28;20058;-80
2023/04/23 05:01:40;;;;;;;11.82;7.78;;;;;;;14.63;62.07;100869.53;4992700;28;20271;-79
2023/04/23 05:04:07;;;;;;;10.52;7.03;;;;;;;14.60;62.20;100864.53;4994422;28;20062;-79
2023/04/23 05:06:34;;;;;;;10.23;7.55;;;;;;;14.14;61.61;100781.03;4986299;28;20783;-80
2023/04/23 05:09:01;;;;;;;10.75;7.50;;;;;;;14.85;62.03;100897.59;4989458;28;20120;-80
2023/04/23 05:11:27;;;;;;;13.07;6.60;;;;;;;14.83;62.11;100890.72;4981161;28;20077;-79
2023/04/23 05:13:56;;;;;;;10.65;6.85;;;;;;;14.94;61.92;100901.16;5007081;28;20487;-80
2023/04/23 05:16:28;;;;;;;8.57;7.30;;;;;;;14.64;61.63;100841.84;4981930;28;20057;-80
2023/04/23 05:18:59;;;;;;;13.70;7.18;;;;;;;14.92;61.79;100884.44;4986131;28;20042;-80
2023/04/23 05:21:28;;;;;;;10.90;7.20;;;;;;;14.67;61.99;100854.88;5007871;28;20152;-79
2023/04/23 05:23:55;;;;;;;7.57;6.47;;;;;;;14.88;63.18;100891.94;5003989;28;20045;-79
2023/04/23 05:26:26;;;;;;;12.25;7.55;;;;;;;14.66;62.55;100853.22;4996549;28;20080;-79
2023/04/23 05:28:53;;;;;;;9.23;7.05;;;;;;;14.85;63.03;100894.06;4986979;28;20072;-78
2023/04/23 05:31:25;;;;;;;7.85;6.85;;;;;;;14.73;62.40;100875.66;4990065;28;20503;-80
2023/04/23 05:33:55;;;;;;;7.25;6.53;;;;;;;14.92;61.65;100895.97;4982421;28;20049;-80
2023/04/23 05:36:21;;;;;;;10.02;7.60;;;;;;;14.54;61.48;100838.44;4986308;28;20045;-80
2023/04/23 05:39:07;;;;;;;10.80;6.65;;;;;;;14.10;61.39;100768.97;4995052;28;20065;-80
2023/04/23 05:41:40;;;;;;;7.95;6.45;;;;;;;15.01;60.75;100899.53;4983185;28;20608;-80
2023/04/23 05:44:11;;;;;;;10.07;6.55;;;;;;;14.81;60.67;100850.81;4998987;28;20147;-79
2023/04/23 05:46:38;;;;;;;9.18;6.05;;;;;;;15.01;60.45;100878.16;5003486;28;20099;-80
2023/04/23 05:49:05;;;;;;;9.70;6.60;;;;;;;15.29;60.38;100896.66;5006836;28;20052;-80
2023/04/23 05:51:32;;;;;;;8.85;6.28;;;;;;;15.35;60.13;100906.72;5001925;28;20314;-80
2023/04/23 05:54:01;;;;;;;7.53;5.70;;;;;;;15.43;60.23;100904.09;5002882;28;20049;-78
2023/04/23 05:56:35;;;;;;;8.63;5.82;;;;;;;15.45;59.47;100891.38;5002460;28;20056;-80
2023/04/23 05:59:02;;;;;;;8.00;5.72;;;;;;;15.36;59.34;100860.25;4995392;28;20482;-80
2023/04/23 06:01:32;;;;;;;7.78;5.82;;;;;;;15.71;58.67;100896.69;5012937;28;20076;-80
2023/04/23 06:04:04;;;;;;;11.38;6.10;;;;;;;15.65;58.62;100869.72;4992949;28;20076;-80
2023/04/23 06:06:42;;;;;;;9.10;6.15;;;;;;;15.50;57.46;100830.19;4997933;28;20077;-80
2023/04/23 06:09:16;;;;;;;5.72;5.00;;;;;;;16.05;56.87;100889.59;4970614;28;20247;-80
2023/04/23 06:11:46;;;;;;;7.10;5.47;;;;;;;16.09;55.43;100877.53;4992250;28;20045;-80
2023/04/23 06:14:12;;;;;;;6.90;5.03;;;;;;;16.36;55.76;100898.66;4997290;28;20136;-80
2023/04/23 06:16:48;;;;;;;5.43;4.93;;;;;;;16.47;55.35;100902.00;5008047;28;20045;-79
2023/04/23 06:19:14;;;;;;;7.82;4.60;;;;;;;16.32;53.41;100848.25;5002048;28;20079;-79
2023/04/23 06:21:41;;;;;;;6.93;5.00;;;;;;;16.45;53.36;100843.22;4989970;28;20565;-80
2023/04/23 06:24:14;;;;;;;6.65;4.65;;;;;;;16.78;53.21;100873.53;4990045;28;20111;-80
2023/04/23 06:26:41;;;;;;;9.10;5.32;;;;;;;16.62;52.97;100847.53;5005958;28;20133;-79
2023/04/23 06:29:08;;;;;;;7.15;4.90;;;;;;;16.97;52.64;100890.25;4991448;28;20360;-79
2023/04/23 06:31:35;;;;;;;5.65;4.32;;;;;;;16.83;52.31;100860.44;4977720;28;20065;-79
2023/04/23 06:34:02;;;;;;;5.90;4.68;;;;;;;16.98;51.52;100860.56;4977326;28;20137;-80
2023/04/23 06:36:28;;;;;;;7.95;4.28;;;;;;;16.85;51.05;100820.91;4964909;28;20060;-79
2023/04/23 06:38:59;;;;;;;8.90;4.30;;;;;;;17.13;51.38;100860.69;4972001;28;20077;-80
2023/04/23 06:41:31;;;;;;;5.00;3.67;;;;;;;17.42;50.08;100889.59;4990482;28;20447;-79
2023/04/23 06:43:58;;;;;;;5.35;4.53;;;;;;;17.24;49.62;100846.91;4988995;28;20053;-79
2023/04/23 06:46:26;;;;;;;5.60;4.38;;;;;;;16.96;49.16;100800.06;4960820;28;20064;-81
2023/04/23 06:48:53;;;;;;;5.35;4.60;;;;;;;17.19;49.64;100833.19;4986739;28;20050;-79
2023/04/23 06:51:31;;;;;;;5.97;4.80;;;;;;;17.44;50.32;100876.84;4985978;28;20073;-79
2023/04/23 06:54:01;;;;;;;5.07;4.05;;;;;;;17.61;49.37;100882.97;4971535;28;20053;-78
2023/04/23 06:56:27;;;;;;;5.25;4.32;;;;;;;17.11;48.93;100787.59;4981410;28;20046;-79
2023/04/23 06:59:02;;;;;;;5.35;4.10;;;;;;;17.69;49.06;100877.56;5006046;28;20139;-79
2023/04/23 07:01:32;;;;;;;5.45;4.13;;;;;;;17.65;49.06;100865.50;5005618;28;20068;-79
2023/04/23 07:03:58;;;;;;;5.00;3.78;;;;;;;17.57;48.00;100830.63;4982105;28;20066;-80
2023/04/23 07:06:26;;;;;;;5.22;4.10;;;;;;;17.75;48.48;100848.34;4976604;28;20488;-78
2023/04/23 07:08:53;;;;;;;6.82;4.25;;;;;;;18.04;48.18;100875.34;4976048;28;20512;-79
2023/04/23 07:11:24;;;;;;;4.28;3.88;;;;;;;18.07;48.22;100869.63;4994976;28;20378;-80
2023/04/23 07:13:54;;;;;;;5.38;3.58;;;;;;;18.11;47.17;100865.56;4999171;28;20136;-79
2023/04/23 07:16:22;;;;;;;4.25;3.13;;;;;;;17.88;46.10;100801.09;4969219;28;20499;-79
2023/04/23 07:18:49;;;;;;;8.85;3.70;;;;;;;18.31;46.53;100870.47;4969997;28;20060;-79
2023/04/23 07:21:22;;;;;;;3.70;3.40;;;;;;;17.92;45.61;100797.03;4982611;28;20231;-79
2023/04/23 07:23:54;;;;;;;4.72;3.30;;;;;;;18.45;45.57;100871.53;4988332;28;20053;-78
2023/04/23 07:26:26;;;;;;;7.32;3.35;;;;;;;18.46;45.59;100863.25;5010583;28;20137;-79
2023/04/23 07:29:06;;;;;;;8.73;4.00;;;;;;;18.54;46.48;100871.28;4984356;28;20948;-79
2023/04/23 07:31:33;;;;;;;7.90;3.80;;;;;;;18.48;45.77;100844.28;4989574;28;20107;-78
2023/04/23 07:34:00;;;;;;;5.43;4.38;;;;;;;18.84;45.78;100870.50;4973589;28;20053;-79
2023/04/23 07:36:30;;;;;;;4.00;3.42;;;;;;;18.82;45.11;100853.72;4992608;28;20251;-79
2023/04/23 07:39:04;;;;;;;5.75;3.80;;;;;;;18.85;45.00;100840.72;4977108;28;20080;-78
2023/04/23 07:41:34;;;;;;;4.10;3.67;;;;;;;18.97;45.22;100860.75;4999792;28;20056;-79
2023/04/23 07:44:01;;;;;;;9.20;4.47;;;;;;;18.82;44.86;100819.59;5005166;28;20049;-79
2023/04/23 07:46:28;;;;;;;4.30;3.90;;;;;;;19.19;44.86;100868.94;5004009;28;20057;-80
2023/04/23 07:48:56;;;;;;;7.32;4.28;;;;;;;19.30;44.71;100870.34;5011155;28;20140;-80
2023/04/23 07:51:27;;;;;;;6.00;4.15;;;;;;;18.89;44.57;100804.38;4989830;28;20049;-79
2023/04/23 07:53:55;;;;;;;8.73;4.50;;;;;;;19.18;44.69;100824.22;4995364;28;20391;-80
2023/04/23 07:56:23;;;;;;;8.55;4.13;;;;;;;19.35;44.63;100866.03;4988027;28;20159;-79
2023/04/23 07:58:52;;;;;;;6.47;3.92;;;;;;;19.31;45.24;100858.53;5005374;28;20073;-79
2023/04/23 08:01:20;;;;;;;4.72;4.15;;;;;;;18.82;44.23;100771.16;4987580;28;20046;-79
2023/04/23 08:03:47;;;;;;;4.25;3.45;;;;;;;19.40;44.86;100860.94;4985988;28;20057;-81
2023/04/23 08:06:17;;;;;;;6.50;3.90;;;;;;;19.33;45.27;100846.56;4993232;28;20359;-78
2023/04/23 08:08:46;;;;;;;8.10;3.78;;;;;;;19.61;44.65;100859.28;4990169;28;20440;-79
2023/04/23 08:11:15;;;;;;;7.32;4.28;;;;;;;19.21;45.22;100799.59;4999539;28;20053;-81
2023/04/23 08:13:47;;;;;;;5.13;4.45;;;;;;;19.34;45.19;100815.06;4979562;28;20088;-79
2023/04/23 08:16:31;;;;;;;6.82;4.28;;;;;;;19.62;45.27;100863.69;4969577;28;20429;-79
2023/04/23 08:19:04;;;;;;;7.68;4.63;;;;;;;18.70;45.41;100724.22;4984451;28;20054;-78
2023/04/23 08:21:37;;;;;;;7.15;4.18;;;;;;;19.59;45.40;100858.69;4994774;28;20083;-79
2023/04/23 08:24:07;;;;;;;7.53;4.63;;;;;;;19.70;45.23;100868.97;5014551;28;20045;-78
2023/04/23 08:26:34;;;;;;;7.45;4.72;;;;;;;19.61;45.40;100857.47;4991082;28;20083;-79
2023/04/23 08:29:01;;;;;;;6.47;4.57;;;;;;;19.57;46.02;100840.00;4986318;28;20076;-79
2023/04/23 08:31:31;;;;;;;6.28;4.82;;;;;;;19.73;47.36;100849.72;5010419;28;20103;-79
2023/04/23 08:33:58;;;;;;;7.45;4.90;;;;;;;19.55;48.24;100814.28;5006783;28;20334;-78
2023/04/23 08:36:28;;;;;;;5.25;4.72;;;;;;;19.83;48.98;100866.44;5019899;28;20057;-77
2023/04/23 08:38:55;;;;;;;8.43;5.65;;;;;;;19.95;49.14;100863.22;5009576;28;20530;-80
2023/04/23 08:41:26;;;;;;;6.50;5.22;;;;;;;19.99;48.99;100861.81;5005134;28;20518;-80
2023/04/23 08:44:11;;;;;;;5.72;5.13;;;;;;;20.06;48.99;100843.84;5018011;28;20064;-81
2023/04/23 08:46:43;;;;;;;7.50;5.25;;;;;;;19.73;48.62;100806.63;5003698;28;20160;-82
2023/04/23 08:49:18;;;;;;;7.85;5.15;;;;;;;20.10;48.50;100844.28;4992618;28;20060;-82
2023/04/23 08:51:52;;;;;;;8.70;5.53;;;;;;;19.98;48.25;100850.22;4989422;28;20175;-80
2023/04/23 08:54:31;;;;;;;5.03;4.53;;;;;;;20.07;48.14;100829.34;4987751;28;20045;-79
2023/04/23 08:57:01;;;;;;;11.30;6.32;;;;;;;20.21;48.39;100841.91;4992225;28;20041;-78
2023/04/23 08:59:33;;;;;;;13.57;5.38;;;;;;;20.36;48.58;100859.88;4989493;28;20260;-78
2023/04/23 09:02:08;;;;;;;8.45;5.55;;;;;;;20.34;48.21;100840.38;4986400;28;20049;-78
2023/04/23 09:04:41;;;;;;;8.32;5.85;;;;;;;20.36;48.25;100827.53;4994116;28;20052;-78
2023/04/23 09:07:10;;;;;;;5.95;5.05;;;;;;;20.52;47.33;100819.16;4983385;28;20046;-79
2023/04/23 09:09:38;;;;;;;5.88;5.28;;;;;;;20.60;47.44;100855.97;5012961;28;20546;-79
2023/04/23 09:12:11;;;;;;;6.50;5.53;;;;;;;20.40;47.85;100807.25;5009539;28;20354;-78
2023/04/23 09:14:45;;;;;;;7.78;5.43;;;;;;;20.77;47.66;100848.41;4977990;28;20050;-79
2023/04/23 09:17:15;;;;;;;7.07;6.38;;;;;;;20.70;47.99;100813.28;4973696;28;20054;-78
2023/04/23 09:19:42;;;;;;;8.10;6.70;;;;;;;20.39;48.11;100743.53;4981221;28;20053;-79
2023/04/23 09:22:14;;;;;;;7.18;6.22;;;;;;;20.69;47.79;100780.06;4991464;28;20046;-81
2023/04/23 09:24:47;;;;;;;7.28;6.07;;;;;;;21.23;46.83;100834.31;4971478;28;20049;-81
2023/04/23 09:27:25;;;;;;;7.72;6.22;;;;;;;21.16;46.43;100801.06;4971822;28;20058;-80
2023/04/23 09:29:56;;;;;;;8.50;5.47;;;;;;;21.29;46.44;100817.34;5013944;28;20057;-81
2023/04/23 09:32:38;;;;;;;10.77;5.60;;;;;;;21.57;46.12;100819.94;5018591;28;20218;-79
2023/04/23 09:35:19;;;;;;;6.28;5.30;;;;;;;21.82;45.66;100833.75;5011986;28;20081;-81
2023/04/23 09:37:54;;;;;;;6.38;5.28;;;;;;;21.58;45.38;100766.75;4999074;28;20054;-79
2023/04/23 09:40:26;;;;;;;7.22;5.70;;;;;;;21.78;45.82;100818.97;5013577;28;20576;-80
2023/04/23 09:42:55;;;;;;;;;;;;;;;21.89;46.31;100829.16;5012269;28;20423;-81
2023/04/23 09:45:28;;;;;;;8.68;7.13;;;;;;;22.01;46.29;100818.56;5011428;28;20225;-80
2023/04/23 09:48:01;;;;;;;9.10;6.72;;;;;;;22.17;46.46;100823.56;4996175;28;20224;-81
2023/04/23 09:50:37;;;;;;;8.02;7.10;;;;;;;22.16;46.36;100819.22;5017295;28;20056;-80
2023/04/23 09:53:05;;;;;;;9.20;6.80;;;;;;;22.16;46.19;100797.59;5020805;28;20053;-81
2023/04/23 09:55:43;;;;;;;10.50;6.72;;;;;;;22.18;45.93;100784.66;5000465;28;20080;-80
2023/04/23 09:58:12;;;;;;;9.50;6.25;;;;;;;22.52;45.39;100790.91;4992000;28;20046;-80
2023/04/23 10:00:41;;;;;;;10.57;6.90;;;;;;;22.63;45.51;100784.03;4977629;28;20053;-80
2023/04/23 10:03:26;;;;;;;7.85;6.78;;;;;;;22.99;44.48;100815.22;4992486;28;20066;-81
2023/04/23 10:06:00;;;;;;;9.25;6.38;;;;;;;23.00;44.40;100793.31;4991104;28;20050;-81
2023/04/23 10:08:30;;;;;;;8.57;6.20;;;;;;;23.08;44.63;100789.53;4973563;28;20052;-81
2023/04/23 10:11:07;;;;;;;11.18;7.95;;;;;;;23.22;45.14;100807.41;4990972;28;20053;-80
2023/04/23 10:13:46;;;;;;;8.48;7.60;;;;;;;23.39;44.40;100813.16;4998314;28;20529;-80
2023/04/23 10:16:13;;;;;;;10.30;9.10;;;;;;;23.47;44.21;100812.06;4997606;28;20136;-81
2023/04/23 10:18:51;;;;;;;11.40;8.23;;;;;;;23.29;44.39;100790.31;4997554;28;20100;-80
2023/04/23 10:21:19;;;;;;;8.73;7.63;;;;;;;23.14;43.95;100744.56;4992898;28;20522;-79
2023/04/23 10:23:49;;;;;;;9.80;8.15;;;;;;;23.24;44.09;100756.56;5003792;28;20280;-78
2023/04/23 10:26:18;;;;;;;13.05;9.63;;;;;;;23.57;42.95;100793.50;4996148;28;20069;-80
2023/04/23 10:28:52;;;;;;;13.63;8.75;;;;;;;23.39;43.53;100796.09;4979076;28;20081;-78
2023/04/23 10:31:22;;;;;;;;;;;;;;;23.66;42.66;100813.00;4974250;28;20530;-79
2023/04/23 10:33:50;;;;;;;13.30;8.02;;;;;;;23.54;42.77;100771.41;4989939;28;19960;-80
2023/04/23 10:36:26;;;;;;;9.77;8.32;;;;;;;24.02;42.47;100817.81;4986819;28;20515;-80
2023/04/23 10:38:59;;;;;;;8.93;7.63;;;;;;;24.04;41.47;100802.16;4991204;28;20273;-80
2023/04/23 10:41:36;;;;;;;9.43;7.38;;;;;;;24.09;41.79;100786.06;4992603;28;20049;-83
2023/04/23 10:44:11;;;;;;;10.68;7.00;;;;;;;24.38;40.75;100810.03;4992941;28;20049;-80
2023/04/23 10:46:40;;;;;;;8.07;6.90;;;;;;;24.15;39.83;100778.91;4991096;28;20049;-78
2023/04/23 10:49:16;;;;;;;10.50;7.53;;;;;;;24.12;40.21;100806.47;4991726;28;20567;-81
2023/04/23 10:51:46;;;;;;;8.73;6.45;;;;;;;24.20;40.67;100813.50;4997083;28;20480;-79
2023/04/23 10:54:58;;;;;;;10.20;6.95;;;;;;;24.24;40.06;100804.69;5010629;28;20049;-79
2023/04/23 10:57:51;;;;;;;10.80;8.20;;;;;;;24.08;41.13;100792.53;4976688;28;20045;-79
2023/04/23 11:00:20;;;;;;;7.88;6.95;;;;;;;23.76;41.14;100769.22;4976067;28;20079;-79
2023/04/23 11:02:52;;;;;;;7.10;6.25;;;;;;;23.68;40.90;100784.66;4968825;28;20058;-81
2023/04/23 11:05:34;;;;;;;6.82;6.10;;;;;;;23.54;41.32;100758.69;4989144;28;20051;-81
2023/04/23 11:08:07;;;;;;;7.82;6.72;;;;;;;23.85;41.64;100795.81;4993066;28;20058;-80
2023/04/23 11:10:56;;;;;;;9.48;6.95;;;;;;;23.78;41.58;100788.78;4989305;28;20042;-81
2023/04/23 11:13:28;;;;;;;7.45;5.82;;;;;;;23.57;41.75;100771.81;4986145;28;20249;-81
2023/04/23 11:16:34;;;;;;;11.75;6.18;;;;;;;23.17;41.65;100728.69;4970283;28;20062;-80
2023/04/23 11:19:14;;;;;;;8.93;7.15;;;;;;;23.71;41.71;100793.41;4938281;28;20684;-81
2023/04/23 11:21:59;;;;;;;13.52;8.23;;;;;;;23.97;41.82;100787.81;4990247;28;20369;-79
2023/04/23 11:24:43;;;;;;;11.07;9.35;;;;;;;24.03;41.77;100727.28;4978416;28;20257;-79
2023/04/23 11:27:17;;;;;;;10.15;9.10;;;;;;;24.63;41.50;100785.59;4972305;28;20501;-79
2023/04/23 11:29:59;;;;;;;13.13;10.57;;;;;;;24.91;41.03;100772.31;4984923;28;20442;-78
2023/04/23 11:32:26;;;;;;;16.20;11.50;;;;;;;24.01;40.39;100604.66;4994419;28;20441;-80
2023/04/23 11:34:54;;;;;;;11.05;9.30;;;;;;;24.95;40.90;100735.53;5028270;28;20054;-79
2023/04/23 11:37:20;;;;;;;12.00;9.82;;;;;;;25.13;40.17;100733.81;5009636;28;20789;-79
2023/04/23 11:39:48;;;;;;;14.98;8.88;;;;;;;25.21;39.14;100738.97;5019598;28;20458;-80